logo
Search for airport 
image banner adimage banner adimage banner ad
image banner ad

2CA5 - Platform Emmy

Located in Huntington Beach, United States

ICAO - 2CA5, IATA -

Data provided by Airmate  

General information

Coordinates: N33°39'44" W118°2'40"
Elevation is 87 feet MSL.
Magnetic variation is 14° East
View others Airports in California

Operational data

Special qualification required
Current time UTC:
Current local time:
Weather at : KSLI - Los Alamitos Aaf ( 14 km )
METAR: KSLI 261455Z 00000KT 10SM FEW120 FEW200 21/19 A2989 RMK AO2A SLP125 T02060185 52011
TAF: TAF KSLI 261300Z 2613/2719 VRB06KT 8000 BR SKC QNH2981INS TX30/2623Z TN19/2614Z
View NOTAMs / SUP AIP / TFR affecting this airport [VIEW]
Communications frequencies: [VIEW]

Runways:

Airport contact information

Address: Huntington Beach United States

Satellite view of 2CA5